Kezdőlap
METAR-TAF:

METAR-TAF

Repülőterek :

Albert Lea, Minnesota, Amerikai Egyesült Államok

földrajzi szélesség: 43-41N, földrajzi hosszúság: 093-22W, magasság: 383 m

Jelenlegi meteorológiai megfigyelések

A jelentés 22 perccel ezelõtt készült, 14:35 UTC
Kelet-északkeleti szél 15 kt széllökések: 23 kt
Hőmérséklet 21°C
Páratartalom 88%
Légköri nyomás 1019 hPa
Látótávolság: 11.3 km
Szórványos felhőzet 2800 lábon
Szórványos felhőzet 4900 lábon
Szakadozott felhőzet 7500 lábon
zivatar, esõ

METAR: KAEL 281435Z AUTO 06015G23KT 7SM TSRA SCT028 SCT049 BKN075 21/19 A3008 RMK AO2 LTG DSNT N THRU E P0001

Idő: 09:57 (14:57 UTC)


TAF: hiányzik

Meteorológiai megfigyelések és előrejelzések több, mint 4000 repülőtéren (METAR és TAF jelentéseket).

A térképen piros és sárga pontok jelzik az elérhető meteorológiai állomásokat.

Mozgassa az egeret a pont fölött, hogy megjelenjen az állomás neve.

Azután kattintson az időjárási megfigyelések és előrejelzések megtekintéséhez.

A térkép megváltoztatása: kattintson a fekete keresztel jelölt zöld gombra ráközelítéshez, a vonallal jelölt zöld gombra távolításhoz, vagy a zöld nyilakra a szomszédos térképek eléréséhez.


METAR-TAF: